Hauptseite
METAR-TAF:

METAR-TAF

Flughäfen :

Oberpfaffenhofen, Deutschland

Breite: 48-05N, Länge: 011-17E, Höhe: 600 m

METAR: fehlend

Zeit: 04:40 (03:40 UTC)

Prognose

Neuester Wetterbericht von vor 10 Stunden und 40 Minuten, um 17:00 UTC
Gültige Prognose vom 09 um 18 UTC bis 10 um 03 UTC
Wind 10 kt aus West/Südwest
Sichtweite 10 km oder mehr
Aufgelockert bewölkt in der Höhe von 2000 ft
Wahrscheinlichkeit 40% :
Zeitweise
vom 09 um 18 UTC bis 09 um 22 UTC
Sichtweite: 3500 m
Durchbrochene Bewölkung in der Höhe von 1400 ft, Towering cumulus.
Schneeschauer

TAF: EDMO 091700Z 0918/1003 24010KT 9999 SCT020 PROB40 TEMPO 0918/0922 3500 -SHSN BKN014TCU

Wetterbeobachtungen und Prognosen von mehr als 4000 Flughäfen (METAR und TAF Bericht).

Die verfügbaren Stationen werden durch gelbe und rote Markierungen auf der Karte dargestellt.

Führen Sie die Maus auf sie, um den Namen der Station zu sehen.

Darauf klicken, um die Beobachtung von Wetterbeobachtungen und Prognosen zu sehen.

Um die Karte zu ändern : klicken Sie auf den grünen Tasten mit einem schwarzen Kreuz Zum Vergrößern, auf den grünen Button mit einem Gedankenstrich zu verkleinern, oder auf die grünen Pfeile für benachbarte Karten.


METAR-TAF: